Tiempo atmosférico en la estación meteorológica de Son Servera, Illes Balears (28 m.)



Fecha
DESCASC
Temp. máxima en grados centígrados (hora)
DESCASC
Temp. mínima en grados centígrados (hora)
DESCASC
Temp. media en grados centígrados
DESCASC
Racha de viento máxima en m/sg (hora)
DESCASC
Velocidad máxima media en intervalos de 10 minutos(hora)
DESCASC
Precipitaciones diarias en mm
DESCASC
Precipitaciones de 00:00 a 06:00 en mm
DESCASC
Precipitaciones de 06:00 a 12:00 en mm
DESCASC
Precipitaciones de 12:00 a 18:00 en mm
DESCASC
Precipitaciones de 18:00 a 24:00 en mm
DESCASC
25-04-2019 19.3 (12:20) 13.7 (00:30) 16.5 15.83 (14:10) 7.5 (14:50) 0 0 0 0 0
24-04-2019 20.3 (14:40) 14 (23:59) 17.1 13.61 (11:30) 7.5 (18:10) 0 0 0 0 0
23-04-2019 22.4 (15:40) 13.3 (07:50) 17.8 17.78 (19:10) 8.06 (17:10) 0.2 0 0.2 0 0
22-04-2019 15.4 (18:40) 13.5 (00:00) 14.4 15.56 (02:50) 8.33 (02:40) 9.2 4 1.4 2.4 1.4
21-04-2019 15.8 (14:30) 13.9 (00:00) 14.8 15 (18:50) 7.78 (19:00) 3.6 0 0.2 0.2 3.2
20-04-2019 18.2 (13:10) 15.3 (00:00) 16.8 18.89 (16:10) 10.56 (05:00) 0 0 0 0 0
19-04-2019 16.6 (22:30) 14.8 (00:00) 15.7 15.83 (22:30) 8.33 (19:20) 0 0 0 0 0
18-04-2019 18.6 (13:40) 14.4 (00:00) 16.5 12.22 (15:30) 6.39 (15:10) 0 0 0 0 0
17-04-2019 18 (13:40) 9.4 (00:00) 13.7 7.22 (17:20) 4.17 (17:00) 0 0 0 0 0
16-04-2019 19.4 (16:30) 10 (00:00) 14.7 6.39 (15:10) 4.17 (13:20) 0.8 0 0.8 0 0
15-04-2019 17.8 (14:20) 8.1 (00:00) 12.9 6.11 (14:20) 3.89 (10:40) 0 0 0 0 0
14-04-2019 23.6 (12:40) 8.5 (00:00) 16.1 9.17 (10:00) 5.28 (17:10) 0 0 0 0 0
13-04-2019 21 (15:00) 6.4 (00:00) 13.7 8.61 (15:10) 5.56 (15:20) 0 0 0 0 0
12-04-2019 17.4 (12:00) 8.4 (00:00) 12.9 9.44 (10:40) 5.83 (10:40) 0 0 0 0 0
11-04-2019 18.7 (11:00) 8.9 (00:00) 13.8 6.67 (10:00) 4.44 (13:40) 1.8 0 0 1.8 0
10-04-2019 19.2 (13:10) 9.1 (00:00) 14.2 10.56 (08:10) 6.39 (01:30) 0.8 0 0.8 0 0
09-04-2019 21.4 (11:40) 11.1 (00:00) 16.3 12.22 (09:40) 7.5 (09:30) 0 0 0 0 0
08-04-2019 21.2 (16:40) 4.8 (00:00) 13 12.5 (13:00) 6.94 (15:00) 0 0 0 0 0
07-04-2019 17.4 (14:50) 6.6 (00:00) 12 11.67 (15:40) 6.94 (13:30) 0 0 0 0 0
06-04-2019 18 (14:20) 8.6 (00:00) 13.3 13.61 (18:00) 8.33 (18:20) 1.8 1.8 0 0 0
05-04-2019 16.9 (13:50) 3.9 (00:00) 10.4 11.67 (19:00) 7.22 (13:10) 0.6 0 0 0 0.6
04-04-2019 17.9 (16:10) 5.7 (00:00) 11.8 10.83 (01:50) 6.39 (01:20) 0.6 0.6 0 0 0
03-04-2019 18.4 (15:10) 10.9 (00:00) 14.6 11.67 (13:50) 7.5 (13:50) 0 0 0 0 0
02-04-2019 21.2 (15:50) 7.4 (00:00) 14.3 7.78 (14:30) 4.44 (12:10) 0 0 0 0 0
01-04-2019 18.3 (14:10) 11.5 (00:00) 14.9 6.67 (16:00) 4.72 (16:00) 0 0 0 0 0
31-03-2019 17.6 (12:50) 11.8 (00:00) 14.7 8.33 (11:20) 4.44 (13:20) 0 0 0 0 0
30-03-2019 17.1 (12:30) 8 (00:00) 12.6 7.22 (14:50) 4.17 (14:20) 0 0 0 0 0
29-03-2019 16.6 (15:00) 6.3 (00:00) 11.5 7.78 (09:40) 4.17 (10:10) 0 0 0 0 0
28-03-2019 17.7 (14:40) 7 (00:00) 12.4 10 (12:20) 6.39 (10:20) 0 0 0 0 0
27-03-2019 16.2 (12:30) 6.4 (00:00) 11.3 11.67 (13:30) 6.94 (09:50) 0 0 0 0 0

Gráficas

Temp. máximas Temp. mínimas Temp. medias Precipitaciones Rachas de viento máximas Velocidades máximas media en intervalos de 10 minutos

Datos horarios

Fecha y hora oficial Temperatura (ºC) Velocidad del viento (km/h) Dirección del viento Racha (km/h) Dirección de racha Precipitación (mm) Presión (hPa) Tendencia (hPa) Humedad (%)
2019-04-25 23:00:00 15.3 4 Oeste 17 Oeste 0 -- -- 83
2019-04-25 22:00:00 16 6 Sudoeste 21 Oeste 0 -- -- 78
2019-04-25 21:00:00 16.7 11 Oeste 35 Noroeste 0 -- -- 74
2019-04-25 20:00:00 17.4 16 Oeste 37 Oeste 0 -- -- 70
2019-04-25 19:00:00 17.9 20 Oeste 41 Oeste 0 -- -- 66
2019-04-25 18:00:00 18.2 14 Oeste 46 Sudoeste 0 -- -- 64
2019-04-25 17:00:00 18.2 24 Oeste 46 Sudoeste 0 -- -- 62
2019-04-25 16:00:00 18.4 23 Sudoeste 41 Sudoeste 0 -- -- 63
2019-04-25 15:00:00 18.4 21 Oeste 57 Sudoeste 0 -- -- 62
2019-04-25 14:00:00 18.4 19 Oeste 41 Sudoeste 0 -- -- 63
2019-04-25 13:00:00 19.1 21 Sudoeste 45 Sudoeste 0 -- -- 66
2019-04-25 12:00:00 18.7 23 Sudoeste 42 Sudoeste 0 -- -- 68
2019-04-25 11:00:00 18.1 22 Sudoeste 42 Sudoeste 0 -- -- 68
2019-04-25 10:00:00 16.7 16 Sudoeste 34 Sudoeste 0 -- -- 75
2019-04-25 09:00:00 15.8 13 Sudoeste 24 Sudoeste 0 -- -- 83
2019-04-25 08:00:00 14.8 9 Sudoeste 26 Sudoeste 0 -- -- 86
2019-04-25 07:00:00 14.7 14 Sudoeste 27 Oeste 0 -- -- 85
2019-04-25 06:00:00 14 9 Sudoeste 19 Sudoeste 0 -- -- 92
2019-04-25 05:00:00 13.9 9 Sudoeste 21 Sudoeste 0 -- -- 89
2019-04-25 04:00:00 14.3 14 Sudoeste 23 Sudoeste 0 -- -- 89
2019-04-25 03:00:00 14.4 15 Sudoeste 28 Sudoeste 0 -- -- 89
2019-04-25 02:00:00 14.3 13 Sudoeste 21 Sur 0 -- -- 89
2019-04-25 01:00:00 14.1 10 Sudoeste 20 Sudoeste 0 -- -- 89
2019-04-25 00:00:00 14 12 Sudoeste 28 Sudoeste 0 -- -- 84
2019-04-24 23:00:00 14.7 18 Sudoeste 33 Sudoeste 0 -- -- 79
2019-04-24 22:00:00 14.9 22 Sudoeste 36 Sudoeste 0 -- -- 76
2019-04-24 21:00:00 15 16 Sudoeste 30 Sudoeste 0 -- -- 75
2019-04-24 20:00:00 15.8 18 Sudoeste 38 Sudoeste 0 -- -- 74
2019-04-24 19:00:00 16.9 18 Sudoeste 41 Sudoeste 0 -- -- 70
2019-04-24 18:00:00 18.1 23 Sudoeste 39 Sudoeste 0 -- -- 60
2019-04-24 17:00:00 19.8 18 Oeste 37 Oeste 0 -- -- 43
2019-04-24 16:00:00 19.8 17 Oeste 43 Sudoeste 0 -- -- 39
2019-04-24 15:00:00 20.1 23 Oeste 45 Noroeste 0 -- -- 41
2019-04-24 14:00:00 19.5 24 Oeste 47 Sudoeste 0 -- -- 42
2019-04-24 13:00:00 19.7 18 Oeste 45 Sudoeste 0 -- -- 40
2019-04-24 12:00:00 19 18 Oeste 49 Oeste 0 -- -- 42
2019-04-24 11:00:00 18.7 18 Oeste 36 Oeste 0 -- -- 45
2019-04-24 10:00:00 17.1 21 Oeste 40 Sudoeste 0 -- -- 49
2019-04-24 09:00:00 16.1 17 Oeste 35 Noroeste 0 -- -- 60
2019-04-24 08:00:00 14.9 16 Oeste 26 Oeste 0 -- -- 64
2019-04-24 07:00:00 14.9 13 Oeste 31 Oeste 0 -- -- 81
2019-04-24 06:00:00 14.9 16 Sudoeste 36 Oeste 0 -- -- 82
2019-04-24 05:00:00 15.2 24 Sudoeste 43 Sudoeste 0 -- -- 79
2019-04-24 04:00:00 15.3 22 Sudoeste 40 Sudoeste 0 -- -- 81
2019-04-24 03:00:00 15.4 22 Sudoeste 36 Sudoeste 0 -- -- 81
2019-04-24 02:00:00 15.3 22 Sudoeste 45 Sudoeste 0 -- -- 84
2019-04-24 01:00:00 15.3 27 Sudoeste 42 Sudoeste 0 -- -- 84
2019-04-24 00:00:00 16 14 Sudoeste 33 Sudoeste 0 -- -- 77
2019-04-23 23:00:00 15.5 11 Sudoeste 34 Sudoeste 0 -- -- 82
2019-04-23 22:00:00 16.2 15 Sudoeste 36 Sudoeste 0 -- -- 77
2019-04-23 21:00:00 16.5 16 Sudoeste 31 Oeste 0 -- -- 74
2019-04-23 20:00:00 17.3 18 Oeste 64 Oeste 0 -- -- 70
2019-04-23 19:00:00 18.8 19 Oeste 45 Oeste 0 -- -- 66
2019-04-23 18:00:00 18.9 25 Sudoeste 57 Noroeste 0 -- -- 64
2019-04-23 17:00:00 20.8 22 Oeste 46 Oeste 0 -- -- 59
2019-04-23 16:00:00 21.9 15 Oeste 33 Oeste 0 -- -- 61
2019-04-23 15:00:00 21.7 13 Oeste 35 Oeste 0 -- -- 60
2019-04-23 14:00:00 20.8 15 Oeste 32 Oeste 0 -- -- 65
2019-04-23 13:00:00 20.2 16 Oeste 33 Sudoeste 0 -- -- 65
2019-04-23 12:00:00 19.6 11 Oeste 35 Oeste 0 -- -- 68
2019-04-23 11:00:00 18.1 16 Oeste 32 Oeste 0.2 -- -- 70
2019-04-23 10:00:00 17.3 12 Oeste 21 Oeste 0 -- -- 77
2019-04-23 09:00:00 15.8 11 Noroeste 19 Noroeste 0 -- -- 83
2019-04-23 08:00:00 13.4 14 Noroeste 21 Noroeste 0 -- -- 91
2019-04-23 07:00:00 13.5 13 Oeste 22 Oeste 0 -- -- 94
2019-04-23 06:00:00 13.4 10 Noroeste 36 Noroeste 0 -- -- 96
2019-04-23 05:00:00 14 17 Norte 34 Noroeste 0 -- -- 97
2019-04-23 04:00:00 14.7 19 Norte 33 Noroeste 0 -- -- 98
2019-04-23 03:00:00 14.8 16 Norte 31 Norte 0 -- -- 98
2019-04-23 02:00:00 14.8 19 Norte 32 Norte 0 -- -- 99
2019-04-23 01:00:00 15.1 5 Noroeste 15 Noroeste 0 -- -- 99
2019-04-23 00:00:00 15.1 4 Noroeste 10 Noroeste 0 -- -- 99
2019-04-22 23:00:00 15.1 6 Norte 12 Norte 0 -- -- 99
2019-04-22 22:00:00 15.1 5 Norte 14 Nordeste 0 -- -- 98
2019-04-22 21:00:00 15.1 8 Norte 19 Norte 0.2 -- -- 98
2019-04-22 20:00:00 15.2 9 Nordeste 18 Norte 0.2 -- -- 98
2019-04-22 19:00:00 15.3 7 Nordeste 15 Nordeste 1 -- -- 98
2019-04-22 18:00:00 15.3 12 Nordeste 21 Nordeste 0.4 -- -- 98
2019-04-22 17:00:00 15.1 12 Nordeste 26 Nordeste 0.2 -- -- 98
2019-04-22 16:00:00 15 16 Nordeste 31 Este 0 -- -- 97
2019-04-22 15:00:00 15.1 18 Nordeste 32 Este 0.4 -- -- 97
2019-04-22 14:00:00 15 18 Nordeste 36 Este 1 -- -- 96
2019-04-22 13:00:00 15 19 Este 30 Este 0.4 -- -- 97
2019-04-22 12:00:00 15 18 Este 34 Este 0.8 -- -- 96
2019-04-22 11:00:00 14.9 20 Este 37 Este 0.4 -- -- 96
2019-04-22 10:00:00 14.8 18 Este 37 Este 0 -- -- 96
2019-04-22 09:00:00 14.7 19 Este 41 Este 0.2 -- -- 96
2019-04-22 08:00:00 14.5 17 Este 45 Sudeste 0 -- -- 96
2019-04-22 07:00:00 14.5 18 Este 41 Este 0 -- -- 95
2019-04-22 06:00:00 14.2 21 Este 49 Este 0 -- -- 94
2019-04-22 05:00:00 14.1 26 Este 53 Nordeste 0 -- -- 93
2019-04-22 04:00:00 13.8 24 Este 51 Este 0.4 -- -- 95
2019-04-22 03:00:00 13.8 30 Este 56 Este 0 -- -- 94
2019-04-22 02:00:00 13.7 29 Este 46 Este 1.4 -- -- 95
2019-04-22 01:00:00 13.5 9 Nordeste 22 Este 2.2 -- -- 95
2019-04-22 00:00:00 13.9 11 Este 44 Sudeste 1.2 -- -- 94
2019-04-21 23:00:00 14.3 21 Este 48 Este 0.8 -- -- 93
2019-04-21 22:00:00 14.2 23 Este 45 Este 0.2 -- -- 89
2019-04-21 21:00:00 14 20 Este 39 Sudeste 0.6 -- -- 93
2019-04-21 20:00:00 14.2 23 Este 51 Este 0.4 -- -- 92
2019-04-21 19:00:00 14.2 28 Este 54 Sudeste 0 -- -- 92
2019-04-21 18:00:00 15 18 Sudeste 44 Sudeste 0 -- -- 88
2019-04-21 17:00:00 14.8 19 Este 45 Este 0 -- -- 91
2019-04-21 16:00:00 15.3 18 Sudeste 45 Sudeste 0 -- -- 88
2019-04-21 15:00:00 15.8 19 Este 44 Este 0 -- -- 87
2019-04-21 14:00:00 15.6 17 Este 39 Este 0 -- -- 89
2019-04-21 13:00:00 14.7 21 Este 41 Sudeste 0.2 -- -- 92
2019-04-21 12:00:00 14.7 17 Este 41 Este 0 -- -- 92
2019-04-21 11:00:00 14.7 20 Este 40 Sudeste 0.2 -- -- 93
2019-04-21 10:00:00 14.5 19 Este 38 Sudeste 0 -- -- 93
2019-04-21 09:00:00 14.6 19 Este 41 Sudeste 0 -- -- 90
2019-04-21 08:00:00 14.6 17 Este 38 Este 0 -- -- 89
2019-04-21 07:00:00 15 19 Este 38 Sudeste 0 -- -- 84
2019-04-21 06:00:00 15.2 16 Este 38 Sudeste 0 -- -- 81
2019-04-21 05:00:00 15.2 14 Este 36 Sudeste 0 -- -- 81
2019-04-21 04:00:00 15.2 17 Sudeste 39 Este 0 -- -- 81
2019-04-21 03:00:00 15.1 21 Sudeste 41 Sudeste 0 -- -- 82
2019-04-21 02:00:00 15.1 18 Sudeste 40 Sudeste 0 -- -- 82
2019-04-21 01:00:00 14.8 19 Sudeste 42 Sudeste 0 -- -- 83
2019-04-21 00:00:00 15.3 20 Sudeste 42 Sudeste 0 -- -- 77
2019-04-20 23:00:00 15.7 26 Sudeste 42 Sudeste 0 -- -- 71
2019-04-20 22:00:00 16.1 18 Este 47 Sudeste 0 -- -- 68
2019-04-20 21:00:00 16.4 21 Sudeste 42 Este 0 -- -- 67
2019-04-20 20:00:00 16.8 26 Este 43 Este 0 -- -- 65
2019-04-20 19:00:00 17.1 26 Este 56 Sudeste 0 -- -- 61
2019-04-20 18:00:00 17 25 Este 57 Sudeste 0 -- -- 62
2019-04-20 17:00:00 17.4 33 Este 68 Sudeste 0 -- -- 60
2019-04-20 16:00:00 17.6 35 Este 68 Sudeste 0 -- -- 57
2019-04-20 15:00:00 17.9 31 Este 62 Sudeste 0 -- -- 59
2019-04-20 14:00:00 17.5 30 Este 67 Sudeste 0 -- -- 61
2019-04-20 13:00:00 17.4 33 Este 61 Este 0 -- -- 62
2019-04-20 12:00:00 17.8 27 Este 58 Sudeste 0 -- -- 59
2019-04-20 11:00:00 17.5 23 Sudeste 47 Sudeste 0 -- -- 60
2019-04-20 10:00:00 16.5 20 Este 58 Este 0 -- -- 65
2019-04-20 09:00:00 16.6 28 Este 53 Este 0 -- -- 63
2019-04-20 08:00:00 16.2 19 Este 55 Sudeste 0 -- -- 65
2019-04-20 07:00:00 16.2 24 Este 55 Este 0 -- -- 63
2019-04-20 06:00:00 16.3 21 Este 62 Este 0 -- -- 64
2019-04-20 05:00:00 16.4 38 Este 67 Este 0 -- -- 63
2019-04-20 04:00:00 16.4 34 Este 55 Este 0 -- -- 63
2019-04-20 03:00:00 16.4 30 Este 58 Este 0 -- -- 65
2019-04-20 02:00:00 16.6 31 Este 62 Este 0 -- -- 64
2019-04-20 01:00:00 16.6 30 Este 57 Este 0 -- -- 66
2019-04-20 00:00:00 16.5 26 Este 47 Este 0 -- -- 69
2019-04-19 23:00:00 16.6 26 Este 57 Este 0 -- -- 72
2019-04-19 22:00:00 16.4 23 Este 46 Este 0 -- -- 75
2019-04-19 21:00:00 16.2 17 Sudeste 44 Este 0 -- -- 78
2019-04-19 20:00:00 16.1 18 Sudeste 50 Este 0 -- -- 80
2019-04-19 19:00:00 16.1 26 Sudeste 48 Sudeste 0 -- -- 83
2019-04-19 18:00:00 16.1 23 Sudeste 50 Sudeste 0 -- -- 83
2019-04-19 17:00:00 16 23 Sudeste 47 Sudeste 0 -- -- 84
2019-04-19 16:00:00 16.2 21 Este 43 Sudeste 0 -- -- 83
2019-04-19 15:00:00 16.3 23 Sudeste 48 Este 0 -- -- 82
2019-04-19 14:00:00 16.3 27 Sudeste 49 Este 0 -- -- 81
2019-04-19 13:00:00 16.2 27 Sudeste 46 Este 0 -- -- 81
2019-04-19 12:00:00 16.2 25 Sudeste 44 Sudeste 0 -- -- 80
2019-04-19 11:00:00 16.1 22 Sudeste 42 Sudeste 0 -- -- 80
2019-04-19 10:00:00 15.7 23 Sudeste 40 Sudeste 0 -- -- 82
2019-04-19 09:00:00 15 22 Sudeste 38 Este 0 -- -- 89
2019-04-19 08:00:00 15 18 Sudeste 33 Sudeste 0 -- -- 89
2019-04-19 07:00:00 14.8 17 Sudeste 30 Sudeste 0 -- -- 90
2019-04-19 06:00:00 15.2 17 Sudeste 33 Sudeste 0 -- -- 88
2019-04-19 05:00:00 15.4 16 Sudeste 30 Sudeste 0 -- -- 87
2019-04-19 04:00:00 15.4 14 Sudeste 29 Sudeste 0 -- -- 87
2019-04-19 03:00:00 15.5 14 Sudeste 29 Sudeste 0 -- -- 85
2019-04-19 02:00:00 15.6 15 Sudeste 35 Sudeste 0 -- -- 84
2019-04-19 01:00:00 15.7 17 Sudeste 31 Sudeste 0 -- -- 83
2019-04-19 00:00:00 15.7 13 Sudeste 31 Sudeste 0 -- -- 81
2019-04-18 23:00:00 15.8 19 Sudeste 33 Sudeste 0 -- -- 79
2019-04-18 22:00:00 15.8 12 Sudeste 33 Sudeste 0 -- -- 81
2019-04-18 21:00:00 15.7 15 Sudeste 29 Sudeste 0 -- -- 81
2019-04-18 20:00:00 16 11 Sudeste 32 Sudeste 0 -- -- 79
2019-04-18 19:00:00 16.3 19 Sudeste 42 Sudeste 0 -- -- 78
2019-04-18 18:00:00 16.8 23 Sudeste 40 Sudeste 0 -- -- 74
2019-04-18 17:00:00 17.2 22 Sudeste 41 Este 0 -- -- 74
2019-04-18 16:00:00 17.2 21 Sudeste 44 Sudeste 0 -- -- 74
2019-04-18 15:00:00 17.9 22 Sudeste 42 Sudeste 0 -- -- 72
2019-04-18 14:00:00 18.1 22 Sudeste 39 Sudeste 0 -- -- 71
2019-04-18 13:00:00 17.4 17 Sudeste 35 Este 0 -- -- 75
2019-04-18 12:00:00 16.9 19 Sudeste 34 Sudeste 0 -- -- 78
2019-04-18 11:00:00 17.5 17 Este 32 Sudeste 0 -- -- 75
2019-04-18 10:00:00 16.6 15 Este 34 Sudeste 0 -- -- 80
2019-04-18 09:00:00 15.5 16 Sudeste 33 Sudeste 0 -- -- 85
2019-04-18 08:00:00 15.2 13 Sudeste 33 Sudeste 0 -- -- 86
2019-04-18 07:00:00 14.8 17 Este 35 Sudeste 0 -- -- 85
2019-04-18 06:00:00 14.7 18 Sudeste 32 Sudeste 0 -- -- 86
2019-04-18 05:00:00 14.5 12 Este 28 Sudeste 0 -- -- 85
2019-04-18 04:00:00 14.5 13 Sudeste 27 Sudeste 0 -- -- 87
2019-04-18 03:00:00 14.6 14 Sudeste 31 Sudeste 0 -- -- 89
2019-04-18 02:00:00 14.5 12 Sudeste 24 Sudeste 0 -- -- 88
2019-04-18 01:00:00 14.5 9 Este 26 Sudeste 0 -- -- 88
2019-04-18 00:00:00 14.5 9 Sudeste 22 Sudeste 0 -- -- 87
2019-04-17 23:00:00 14.6 10 Sudeste 22 Este 0 -- -- 84
2019-04-17 22:00:00 14.5 8 Sudeste 17 Sudeste 0 -- -- 84
2019-04-17 21:00:00 14.7 9 Sudeste 21 Sudeste 0 -- -- 83
2019-04-17 20:00:00 15 11 Sudeste 21 Sudeste 0 -- -- 81
2019-04-17 19:00:00 16.1 12 Sudeste 22 Sudeste 0 -- -- 76
2019-04-17 18:00:00 16.1 12 Sudeste 26 Sudeste 0 -- -- 75
2019-04-17 17:00:00 16.5 15 Sudeste 26 Sudeste 0 -- -- 73
2019-04-17 16:00:00 17.5 14 Sudeste 23 Sudeste 0 -- -- 68
2019-04-17 15:00:00 17.5 13 Sudeste 25 Sudeste 0 -- -- 67
2019-04-17 14:00:00 17.8 12 Sudeste 21 Sudeste 0 -- -- 67
2019-04-17 13:00:00 17.4 13 Sudeste 23 Sudeste 0 -- -- 69
2019-04-17 12:00:00 17.4 13 Sudeste 21 Sudeste 0 -- -- 70
2019-04-17 11:00:00 16.9 9 Sudeste 21 Sudeste 0 -- -- 71
2019-04-17 10:00:00 16.4 11 Sudeste 18 Sudeste 0 -- -- 74
2019-04-17 09:00:00 15.6 2 Sudoeste 9 Noroeste 0 -- -- 87
2019-04-17 08:00:00 10.6 7 Noroeste 11 Noroeste 0 -- -- 95
2019-04-17 07:00:00 9.7 7 Noroeste 11 Noroeste 0 -- -- 96
2019-04-17 06:00:00 9.7 8 Noroeste 10 Noroeste 0 -- -- 95
2019-04-17 05:00:00 9.8 7 Noroeste 11 Noroeste 0 -- -- 95
2019-04-17 04:00:00 9.8 7 Noroeste 9 Noroeste 0 -- -- 94
2019-04-17 03:00:00 9.9 6 Noroeste 9 Noroeste 0 -- -- 93
2019-04-17 02:00:00 10.4 8 Noroeste 9 Noroeste 0 -- -- 92
2019-04-17 01:00:00 10.7 6 Norte 9 Noroeste 0 -- -- 91
2019-04-17 00:00:00 10.9 6 Noroeste 9 Noroeste 0 -- -- 89
2019-04-16 23:00:00 11.6 4 Noroeste 8 Noroeste 0 -- -- 87
2019-04-16 22:00:00 12.9 4 Noroeste 9 Sudeste 0 -- -- 83
2019-04-16 21:00:00 14.8 4 Sudeste 10 Nordeste 0 -- -- 81
2019-04-16 20:00:00 15.7 7 Norte 19 Nordeste 0 -- -- 75
2019-04-16 19:00:00 16.9 13 Nordeste 21 Norte 0 -- -- 67
2019-04-16 18:00:00 18.8 9 Este 22 Este 0 -- -- 47
2019-04-16 17:00:00 19.2 10 Este 22 Este 0 -- -- 54
2019-04-16 16:00:00 18.8 12 Sudeste 23 Sudeste 0 -- -- 49
2019-04-16 15:00:00 18.2 12 Sudeste 22 Sur 0 -- -- 52
2019-04-16 14:00:00 17.4 14 Sur 23 Sudeste 0 -- -- 58
2019-04-16 13:00:00 18.3 8 Sur 18 Sudeste 0 -- -- 53
2019-04-16 12:00:00 17.4 9 Sur 18 Sur 0 -- -- 61
2019-04-16 11:00:00 18 5 Sur 12 Este 0 -- -- 62
2019-04-16 10:00:00 16 2 Sudeste 10 Noroeste 0 -- -- 82
2019-04-16 09:00:00 12.7 5 Noroeste 20 Sudeste 0.4 -- -- 93
2019-04-16 08:00:00 12.4 2 Sur 9 Noroeste 0.4 -- -- 94
2019-04-16 07:00:00 11.6 5 Norte 12 Noroeste 0 -- -- 93
2019-04-16 06:00:00 11.2 4 Norte 11 Noroeste 0 -- -- 93
2019-04-16 05:00:00 10.6 5 Noroeste 10 Noroeste 0 -- -- 93
2019-04-16 04:00:00 10.6 6 Noroeste 12 Noroeste 0 -- -- 91
2019-04-16 03:00:00 10.1 7 Noroeste 10 Noroeste 0 -- -- 88
2019-04-16 02:00:00 12.9 3 Sur 13 Sur 0 -- -- 83
2019-04-16 01:00:00 13.7 4 Sur 13 Sur 0 -- -- 81
2019-04-16 00:00:00 13.9 7 Sur 15 Sur 0 -- -- 78
2019-04-15 23:00:00 14.2 8 Sur 15 Sudeste 0 -- -- 75
2019-04-15 22:00:00 14.1 8 Sudeste 14 Sudeste 0 -- -- 73
2019-04-15 21:00:00 14.3 8 Sudeste 16 Sudeste 0 -- -- 68
2019-04-15 20:00:00 14.9 8 Sudeste 15 Sudeste 0 -- -- 66
2019-04-15 19:00:00 15.7 8 Sudeste 17 Sudeste 0 -- -- 57
2019-04-15 18:00:00 16.7 11 Sudeste 19 Sudeste 0 -- -- 46
2019-04-15 17:00:00 17.2 10 Sudeste 20 Sudeste 0 -- -- 49
2019-04-15 16:00:00 16.5 10 Sur 18 Sudeste 0 -- -- 53
2019-04-15 15:00:00 16.7 11 Sur 22 Sudeste 0 -- -- 52
2019-04-15 14:00:00 17.5 12 Sudeste 21 Sudeste 0 -- -- 55
2019-04-15 13:00:00 17.7 11 Sudeste 21 Sudeste 0 -- -- 51
2019-04-15 12:00:00 17.3 13 Sudeste 22 Sudeste 0 -- -- 54
2019-04-15 11:00:00 17.3 11 Sudeste 21 Sudeste 0 -- -- 57
2019-04-15 10:00:00 17 9 Sudeste 16 Este 0 -- -- 59
2019-04-15 09:00:00 17 2 Noroeste 10 Noroeste 0 -- -- 66
2019-04-15 08:00:00 10.3 7 Noroeste 12 Noroeste 0 -- -- 89
2019-04-15 07:00:00 8.1 8 Noroeste 12 Norte 0 -- -- 94
2019-04-15 06:00:00 8.8 8 Noroeste 11 Noroeste 0 -- -- 93
2019-04-15 05:00:00 9.1 9 Noroeste 10 Noroeste 0 -- -- 94
2019-04-15 04:00:00 9.8 8 Noroeste 10 Noroeste 0 -- -- 94
2019-04-15 03:00:00 10.4 7 Noroeste 10 Noroeste 0 -- -- 94
2019-04-15 02:00:00 10.4 8 Noroeste 9 Noroeste 0 -- -- 93
2019-04-15 01:00:00 10.8 6 Noroeste 9 Noroeste 0 -- -- 92
2019-04-15 00:00:00 11.2 5 Noroeste 9 Noroeste 0 -- -- 91
2019-04-14 23:00:00 11.8 5 Noroeste 7 Noroeste 0 -- -- 89
2019-04-14 22:00:00 13.1 3 Noroeste 5 Noroeste 0 -- -- 86
2019-04-14 21:00:00 15.1 3 Sudeste 15 Sudeste 0 -- -- 82
2019-04-14 20:00:00 16.4 9 Sudeste 17 Sur 0 -- -- 74
2019-04-14 19:00:00 19 5 Este 18 Nordeste 0 -- -- 55
2019-04-14 18:00:00 18.6 13 Nordeste 27 Nordeste 0 -- -- 65
2019-04-14 17:00:00 19.7 18 Nordeste 28 Nordeste 0 -- -- 61
2019-04-14 16:00:00 19.5 15 Nordeste 24 Nordeste 0 -- -- 56
2019-04-14 15:00:00 19.9 13 Sudeste 26 Sudeste 0 -- -- 62
2019-04-14 14:00:00 20 15 Sudeste 28 Sudeste 0 -- -- 61
2019-04-14 13:00:00 21.4 8 Sur 21 Sudeste 0 -- -- 62
2019-04-14 12:00:00 21.4 9 Oeste 21 Noroeste 0 -- -- 58
2019-04-14 11:00:00 19.2 10 Noroeste 30 Oeste 0 -- -- 71
2019-04-14 10:00:00 17.1 11 Oeste 33 Oeste 0 -- -- 79
2019-04-14 09:00:00 15.4 7 Norte 21 Oeste 0 -- -- 87
2019-04-14 08:00:00 11.9 6 Norte 11 Noroeste 0 -- -- 95
2019-04-14 07:00:00 11.1 4 Oeste 15 Noroeste 0 -- -- 96
2019-04-14 06:00:00 11.3 5 Noroeste 15 Noroeste 0 -- -- 96
2019-04-14 05:00:00 11.7 6 Noroeste 15 Noroeste 0 -- -- 95
2019-04-14 04:00:00 12 3 Nordeste 11 Este 0 -- -- 95
2019-04-14 03:00:00 12.1 6 Norte 18 Norte 0 -- -- 94
2019-04-14 02:00:00 12.4 8 Noroeste 19 Noroeste 0 -- -- 94
2019-04-14 01:00:00 10.5 3 Oeste 12 Noroeste 0 -- -- 94
2019-04-14 00:00:00 9 7 Noroeste 12 Noroeste 0 -- -- 90
2019-04-13 23:00:00 9.8 7 Noroeste 10 Noroeste 0 -- -- 88
2019-04-13 22:00:00 11.3 7 Noroeste 10 Noroeste 0 -- -- 86
2019-04-13 21:00:00 13 0 Calma 6 Sudoeste 0 -- -- 80
2019-04-13 20:00:00 15.4 5 Sur 19 Sudeste 0 -- -- 75
2019-04-13 19:00:00 16.8 12 Sudeste 21 Sudeste 0 -- -- 62
2019-04-13 18:00:00 18.8 9 Este 28 Nordeste 0 -- -- 49
2019-04-13 17:00:00 19.3 15 Nordeste 28 Nordeste 0 -- -- 47
2019-04-13 16:00:00 19.7 15 Nordeste 31 Este 0 -- -- 51
2019-04-13 15:00:00 21 13 Nordeste 24 Nordeste 0 -- -- 49
2019-04-13 14:00:00 19.3 12 Sur 26 Sudoeste 0 -- -- 55
2019-04-13 13:00:00 18.5 13 Sur 22 Sur 0 -- -- 56
2019-04-13 12:00:00 18.6 9 Sur 17 Sur 0 -- -- 46
2019-04-13 11:00:00 18.1 8 Sudeste 13 Sudeste 0 -- -- 55
2019-04-13 10:00:00 18 3 Sur 12 Noroeste 0 -- -- 57
2019-04-13 09:00:00 14.8 5 Norte 14 Norte 0 -- -- 71
2019-04-13 08:00:00 8.1 8 Norte 12 Norte 0 -- -- 93
2019-04-13 07:00:00 6.9 8 Norte 11 Norte 0 -- -- 95
2019-04-13 06:00:00 6.5 4 Norte 7 Noroeste 0 -- -- 93
2019-04-13 05:00:00 7 3 Nordeste 6 Noroeste 0 -- -- 93
2019-04-13 04:00:00 7.2 4 Norte 9 Noroeste 0 -- -- 92
2019-04-13 03:00:00 7.4 6 Norte 9 Noroeste 0 -- -- 92
2019-04-13 02:00:00 7.3 8 Noroeste 12 Noroeste 0 -- -- 91
2019-04-13 01:00:00 7.8 9 Noroeste 12 Noroeste 0 -- -- 89
2019-04-13 00:00:00 8.4 8 Noroeste 10 Noroeste 0 -- -- 88
2019-04-12 23:00:00 8.9 8 Noroeste 10 Noroeste 0 -- -- 86
2019-04-12 22:00:00 9.9 7 Noroeste 10 Noroeste 0 -- -- 82
2019-04-12 21:00:00 11.4 5 Noroeste 6 Noroeste 0 -- -- 74
2019-04-12 20:00:00 14.1 2 Sudeste 11 Sudeste 0 -- -- 66
2019-04-12 19:00:00 15.2 6 Sudeste 17 Sudeste 0 -- -- 61
2019-04-12 18:00:00 15.1 7 Sudeste 17 Sudeste 0 -- -- 62
2019-04-12 17:00:00 15.7 11 Sudeste 18 Sudeste 0 -- -- 61
2019-04-12 16:00:00 16.3 10 Sudeste 17 Sudeste 0 -- -- 61
2019-04-12 15:00:00 16.3 9 Este 23 Sudeste 0 -- -- 62
2019-04-12 14:00:00 16.7 11 Este 26 Sudeste 0 -- -- 61
2019-04-12 13:00:00 17 11 Nordeste 23 Este 0 -- -- 58
2019-04-12 12:00:00 17.4 10 Este 27 Nordeste 0 -- -- 52
2019-04-12 11:00:00 15.9 15 Este 34 Nordeste 0 -- -- 54
2019-04-12 10:00:00 15.7 15 Nordeste 32 Nordeste 0 -- -- 55
2019-04-12 09:00:00 13.6 3 Norte 14 Nordeste 0 -- -- 70
2019-04-12 08:00:00 11.1 6 Noroeste 9 Este 0 -- -- 82
2019-04-12 07:00:00 11.3 5 Noroeste 11 Noroeste 0 -- -- 77
2019-04-12 06:00:00 10.9 8 Noroeste 11 Noroeste 0 -- -- 77
2019-04-12 05:00:00 11.3 4 Norte 8 Norte 0 -- -- 75
2019-04-12 04:00:00 11.5 6 Noroeste 10 Noroeste 0 -- -- 73
2019-04-12 03:00:00 11.2 5 Noroeste 12 Noroeste 0 -- -- 77
2019-04-12 02:00:00 11 4 Norte 8 Noroeste 0 -- -- 81
2019-04-12 01:00:00 11.9 6 Noroeste 12 Oeste 0 -- -- 81
2019-04-12 00:00:00 12.7 4 Noroeste 11 Noroeste 0 -- -- 81
2019-04-11 23:00:00 11.9 8 Noroeste 11 Noroeste 0 -- -- 85
2019-04-11 22:00:00 11.6 7 Noroeste 12 Noroeste 0 -- -- 83
2019-04-11 21:00:00 12.5 4 Noroeste 7 Norte 0 -- -- 79
2019-04-11 20:00:00 14.3 0 Calma 13 Este 0 -- -- 69
2019-04-11 19:00:00 15.8 9 Sudeste 20 Sudeste 0 -- -- 65
2019-04-11 18:00:00 16.5 12 Sudeste 23 Sudeste 0 -- -- 62
2019-04-11 17:00:00 16.6 12 Sudeste 22 Sudeste 0 -- -- 62
2019-04-11 16:00:00 16.5 12 Sudeste 20 Este 0 -- -- 63
2019-04-11 15:00:00 14.5 6 Sur 17 Sur 1.8 -- -- 78
2019-04-11 14:00:00 15.7 7 Sur 24 Sudeste 0 -- -- 67
2019-04-11 13:00:00 17.1 14 Sur 21 Sudeste 0 -- -- 61
2019-04-11 12:00:00 17.4 15 Sudeste 24 Sudeste 0 -- -- 60
2019-04-11 11:00:00 18.7 6 Este 23 Nordeste 0 -- -- 48
2019-04-11 10:00:00 17.4 12 Nordeste 24 Nordeste 0 -- -- 53
2019-04-11 09:00:00 13.3 4 Noroeste 10 Noroeste 0 -- -- 71
2019-04-11 08:00:00 12.3 5 Noroeste 12 Norte 0 -- -- 68
2019-04-11 07:00:00 12 5 Noroeste 15 Norte 0 -- -- 69
2019-04-11 06:00:00 11.7 7 Norte 12 Norte 0 -- -- 69
2019-04-11 05:00:00 10 6 Norte 9 Norte 0 -- -- 83
2019-04-11 04:00:00 9.6 4 Noroeste 6 Norte 0 -- -- 84
2019-04-11 03:00:00 10.1 3 Norte 13 Norte 0 -- -- 83
2019-04-11 02:00:00 9.2 7 Noroeste 12 Noroeste 0 -- -- 85
2019-04-11 01:00:00 9.1 6 Noroeste 11 Norte 0 -- -- 85
2019-04-11 00:00:00 9.1 8 Noroeste 12 Noroeste 0 -- -- 85
2019-04-10 23:00:00 10 7 Noroeste 10 Noroeste 0 -- -- 84
2019-04-10 22:00:00 10.8 5 Norte 10 Noroeste 0 -- -- 80
2019-04-10 21:00:00 11.4 6 Noroeste 9 Noroeste 0 -- -- 78
2019-04-10 20:00:00 13.8 0 Calma 5 Noroeste 0 -- -- 72
2019-04-10 19:00:00 14.7 3 Noroeste 16 Oeste 0 -- -- 66
2019-04-10 18:00:00 14.5 8 Sudoeste 18 Sur 0 -- -- 65
2019-04-10 17:00:00 14.9 12 Sudoeste 21 Sur 0 -- -- 65
2019-04-10 16:00:00 16.8 5 Noroeste 11 Noroeste 0 -- -- 55
2019-04-10 15:00:00 15.1 11 Oeste 25 Noroeste 0 -- -- 68
2019-04-10 14:00:00 15.2 11 Norte 26 Noroeste 0 -- -- 69
2019-04-10 13:00:00 18.8 15 Noroeste 28 Noroeste 0 -- -- 52
2019-04-10 12:00:00 17.7 16 Noroeste 27 Oeste 0 -- -- 59
2019-04-10 11:00:00 15.1 17 Oeste 29 Noroeste 0 -- -- 67
2019-04-10 10:00:00 12.4 8 Noroeste 25 Oeste 0.2 -- -- 80
2019-04-10 09:00:00 10.8 8 Noroeste 38 Noroeste 0.6 -- -- 84
2019-04-10 08:00:00 12.9 20 Noroeste 33 Noroeste 0 -- -- 71
2019-04-10 07:00:00 11 5 Norte 8 Noroeste 0 -- -- 82
2019-04-10 06:00:00 12.1 2 Norte 16 Noroeste 0 -- -- 76
2019-04-10 05:00:00 13 3 Noroeste 18 Noroeste 0 -- -- 74
2019-04-10 04:00:00 13.3 8 Noroeste 21 Oeste 0 -- -- 73
2019-04-10 03:00:00 13.3 6 Oeste 34 Noroeste 0 -- -- 70
2019-04-10 02:00:00 13.8 17 Oeste 37 Oeste 0 -- -- 68
2019-04-10 01:00:00 13.2 16 Oeste 30 Oeste 0 -- -- 70
2019-04-10 00:00:00 13 14 Oeste 26 Noroeste 0 -- -- 75
2019-04-09 23:00:00 13.5 12 Oeste 21 Oeste 0 -- -- 71
2019-04-09 22:00:00 14.1 14 Oeste 27 Oeste 0 -- -- 57
2019-04-09 21:00:00 14.6 10 Oeste 20 Noroeste 0 -- -- 51
2019-04-09 20:00:00 16.3 12 Oeste 27 Oeste 0 -- -- 47
2019-04-09 19:00:00 18.6 14 Oeste 30 Noroeste 0 -- -- 45
2019-04-09 18:00:00 17.9 12 Sudeste 23 Sudeste 0 -- -- 62
2019-04-09 17:00:00 19.5 8 Noroeste 23 Norte 0 -- -- 50
2019-04-09 16:00:00 18.3 12 Noroeste 31 Norte 0 -- -- 51
2019-04-09 15:00:00 20 16 Norte 34 Norte 0 -- -- 48
2019-04-09 14:00:00 19.9 19 Norte 36 Norte 0 -- -- 46
2019-04-09 13:00:00 19.1 23 Norte 35 Norte 0 -- -- 51
2019-04-09 12:00:00 20 12 Noroeste 27 Norte 0 -- -- 46
2019-04-09 11:00:00 20.1 15 Norte 42 Oeste 0 -- -- 46
2019-04-09 10:00:00 18 18 Oeste 44 Oeste 0 -- -- 64
2019-04-09 09:00:00 15.9 20 Oeste 38 Oeste 0 -- -- 76
2019-04-09 08:00:00 12.9 9 Oeste 21 Oeste 0 -- -- 96
2019-04-09 07:00:00 11.3 2 Noroeste 5 Norte 0 -- -- 94
2019-04-09 06:00:00 11.9 2 Oeste 7 Noroeste 0 -- -- 93
2019-04-09 05:00:00 13.6 5 Noroeste 14 Oeste 0 -- -- 91
2019-04-09 04:00:00 12.7 0 Calma 5 Norte 0 -- -- 88
2019-04-09 03:00:00 11.4 3 Norte 8 Oeste 0 -- -- 87
2019-04-09 02:00:00 12.3 3 Norte 16 Noroeste 0 -- -- 81
2019-04-09 01:00:00 14 9 Noroeste 21 Noroeste 0 -- -- 77
2019-04-09 00:00:00 13.5 9 Noroeste 19 Noroeste 0 -- -- 76
2019-04-08 23:00:00 14 10 Noroeste 19 Noroeste 0 -- -- 74
2019-04-08 22:00:00 14.7 7 Noroeste 25 Oeste 0 -- -- 70
2019-04-08 21:00:00 15.1 6 Noroeste 14 Sudoeste 0 -- -- 70
2019-04-08 20:00:00 15.9 4 Sudoeste 14 Sudeste 0 -- -- 75
2019-04-08 19:00:00 18.7 9 Sudeste 26 Oeste 0 -- -- 60
2019-04-08 18:00:00 20.9 15 Noroeste 29 Noroeste 0 -- -- 50
2019-04-08 17:00:00 20.7 17 Oeste 38 Noroeste 0 -- -- 49
2019-04-08 16:00:00 20.8 19 Oeste 40 Oeste 0 -- -- 46
2019-04-08 15:00:00 19.7 25 Oeste 45 Oeste 0 -- -- 48
2019-04-08 14:00:00 20.4 24 Oeste 41 Noroeste 0 -- -- 49
2019-04-08 13:00:00 18.5 22 Oeste 45 Noroeste 0 -- -- 52
2019-04-08 12:00:00 18.6 10 Oeste 27 Oeste 0 -- -- 53
2019-04-08 11:00:00 17.1 5 Sudoeste 20 Sudoeste 0 -- -- 78
2019-04-08 10:00:00 15 13 Sudoeste 22 Sudoeste 0 -- -- 86
2019-04-08 09:00:00 11.7 3 Sudoeste 11 Noroeste 0 -- -- 93
2019-04-08 08:00:00 6.3 9 Noroeste 12 Noroeste 0 -- -- 95
2019-04-08 07:00:00 5.3 6 Noroeste 11 Noroeste 0 -- -- 93
2019-04-08 06:00:00 5.1 7 Noroeste 10 Noroeste 0 -- -- 92
2019-04-08 05:00:00 4.9 8 Noroeste 10 Noroeste 0 -- -- 91
2019-04-08 04:00:00 5.2 8 Noroeste 9 Noroeste 0 -- -- 90
2019-04-08 03:00:00 5.5 8 Noroeste 10 Noroeste 0 -- -- 89
2019-04-08 02:00:00 6.7 7 Norte 10 Noroeste 0 -- -- 86
2019-04-08 01:00:00 7.5 4 Norte 11 Noroeste 0 -- -- 82
2019-04-08 00:00:00 8.7 7 Noroeste 12 Noroeste 0 -- -- 77
2019-04-07 23:00:00 10.7 6 Noroeste 22 Noroeste 0 -- -- 72
2019-04-07 22:00:00 10.9 10 Norte 16 Noroeste 0 -- -- 71
2019-04-07 21:00:00 11.2 5 Oeste 26 Norte 0 -- -- 69
2019-04-07 20:00:00 13.3 12 Norte 29 Norte 0 -- -- 60
2019-04-07 19:00:00 14.9 18 Norte 35 Norte 0 -- -- 56
2019-04-07 18:00:00 14.6 17 Norte 37 Norte 0 -- -- 56
2019-04-07 17:00:00 16.1 21 Norte 41 Noroeste 0 -- -- 50
2019-04-07 16:00:00 16.6 23 Norte 42 Norte 0 -- -- 47
2019-04-07 15:00:00 16 20 Norte 41 Norte 0 -- -- 48
2019-04-07 14:00:00 17.3 20 Norte 40 Norte 0 -- -- 42
2019-04-07 13:00:00 16.5 17 Norte 36 Norte 0 -- -- 47
2019-04-07 12:00:00 16.8 18 Norte 42 Noroeste 0 -- -- 48
2019-04-07 11:00:00 15.9 15 Noroeste 24 Noroeste 0 -- -- 54
2019-04-07 10:00:00 14.4 12 Norte 23 Norte 0 -- -- 64
2019-04-07 09:00:00 11.6 6 Noroeste 17 Oeste 0 -- -- 74
2019-04-07 08:00:00 7.1 4 Norte 8 Norte 0 -- -- 89
2019-04-07 07:00:00 8.5 3 Noroeste 17 Oeste 0 -- -- 82
2019-04-07 06:00:00 10.4 10 Oeste 19 Oeste 0 -- -- 78
2019-04-07 05:00:00 9.6 8 Oeste 13 Oeste 0 -- -- 85
2019-04-07 04:00:00 7.7 7 Oeste 10 Oeste 0 -- -- 92
2019-04-07 03:00:00 6.7 3 Norte 7 Noroeste 0 -- -- 88
2019-04-07 02:00:00 7.4 4 Norte 12 Oeste 0 -- -- 84
2019-04-07 01:00:00 8.2 3 Oeste 12 Noroeste 0 -- -- 80
2019-04-07 00:00:00 10 9 Noroeste 16 Oeste 0 -- -- 74
2019-04-06 23:00:00 10.6 7 Oeste 21 Oeste 0 -- -- 73
2019-04-06 22:00:00 12.9 8 Oeste 21 Sudoeste 0 -- -- 63
2019-04-06 21:00:00 13.3 7 Oeste 26 Oeste 0 -- -- 60
2019-04-06 20:00:00 13.9 12 Oeste 37 Oeste 0 -- -- 58
2019-04-06 19:00:00 14.5 19 Oeste 48 Oeste 0 -- -- 52
2019-04-06 18:00:00 15.1 25 Oeste 49 Oeste 0 -- -- 44
2019-04-06 17:00:00 15.7 24 Noroeste 40 Noroeste 0 -- -- 45
2019-04-06 16:00:00 16.6 22 Noroeste 43 Oeste 0 -- -- 44
2019-04-06 15:00:00 17 21 Noroeste 37 Noroeste 0 -- -- 47
2019-04-06 14:00:00 16.4 23 Oeste 40 Oeste 0 -- -- 52
2019-04-06 13:00:00 16.5 21 Oeste 46 Oeste 0 -- -- 50
2019-04-06 12:00:00 15.6 21 Oeste 35 Oeste 0 -- -- 57
2019-04-06 11:00:00 14.3 18 Noroeste 31 Noroeste 0 -- -- 58
2019-04-06 10:00:00 12.3 15 Oeste 27 Oeste 0 -- -- 70
2019-04-06 09:00:00 10.8 4 Sudoeste 16 Noroeste 0 -- -- 77
2019-04-06 08:00:00 9.3 7 Noroeste 23 Oeste 0 -- -- 84
2019-04-06 07:00:00 8.7 6 Noroeste 22 Oeste 0 -- -- 89
2019-04-06 06:00:00 9.6 12 Oeste 26 Oeste 0 -- -- 89
2019-04-06 05:00:00 10.9 11 Sudoeste 19 Sudoeste 0 -- -- 88
2019-04-06 04:00:00 11.1 9 Oeste 37 Oeste 1.8 -- -- 88
2019-04-06 03:00:00 12.4 8 Sudoeste 25 Oeste 0 -- -- 83
2019-04-06 02:00:00 12.6 9 Oeste 24 Sudoeste 0 -- -- 84
2019-04-06 01:00:00 13.4 8 Oeste 32 Oeste 0 -- -- 82
2019-04-06 00:00:00 13.3 7 Sudoeste 21 Sudoeste 0 -- -- 86
2019-04-05 23:00:00 13.6 14 Sudoeste 28 Sudoeste 0.4 -- -- 84
2019-04-05 22:00:00 14.4 12 Sudoeste 27 Sudoeste 0.2 -- -- 77
2019-04-05 21:00:00 14.6 15 Sudoeste 29 Sudoeste 0 -- -- 77
2019-04-05 20:00:00 14.8 19 Sudoeste 37 Sudoeste 0 -- -- 75
2019-04-05 19:00:00 15.2 23 Sudoeste 42 Sudoeste 0 -- -- 76
2019-04-05 18:00:00 15 15 Sur 38 Sudoeste 0 -- -- 73
2019-04-05 17:00:00 15.8 21 Sudoeste 39 Sudoeste 0 -- -- 70
2019-04-05 16:00:00 16.7 19 Sudoeste 38 Sudoeste 0 -- -- 62
2019-04-05 15:00:00 16.6 24 Sudoeste 41 Sudoeste 0 -- -- 60
2019-04-05 14:00:00 16.4 23 Sudoeste 41 Sudoeste 0 -- -- 59
2019-04-05 13:00:00 16.6 21 Sudoeste 40 Sudoeste 0 -- -- 55
2019-04-05 12:00:00 16.1 19 Sudoeste 30 Sur 0 -- -- 51
2019-04-05 11:00:00 15.6 16 Sudoeste 28 Sudoeste 0 -- -- 50
2019-04-05 10:00:00 14.3 13 Sudoeste 24 Sudoeste 0 -- -- 53
2019-04-05 09:00:00 12.7 4 Sur 15 Noroeste 0 -- -- 67
2019-04-05 08:00:00 5.1 9 Noroeste 13 Noroeste 0 -- -- 91
2019-04-05 07:00:00 4.1 9 Noroeste 12 Noroeste 0 -- -- 92
2019-04-05 06:00:00 4.4 11 Noroeste 14 Noroeste 0 -- -- 91
2019-04-05 05:00:00 4.7 10 Noroeste 14 Noroeste 0 -- -- 90
2019-04-05 04:00:00 4.8 10 Noroeste 13 Noroeste 0 -- -- 89
2019-04-05 03:00:00 5.4 9 Norte 12 Noroeste 0 -- -- 86
2019-04-05 02:00:00 5 9 Noroeste 12 Norte 0 -- -- 83
2019-04-05 01:00:00 5.4 8 Noroeste 11 Noroeste 0 -- -- 79
2019-04-05 00:00:00 5.7 8 Noroeste 12 Norte 0 -- -- 75
2019-04-04 23:00:00 6.4 8 Noroeste 12 Noroeste 0 -- -- 73
2019-04-04 22:00:00 7.5 6 Noroeste 9 Noroeste 0 -- -- 69
2019-04-04 21:00:00 9.7 2 Noroeste 10 Este 0 -- -- 60
2019-04-04 20:00:00 12.3 5 Sudoeste 17 Sudoeste 0 -- -- 51
2019-04-04 19:00:00 14.2 11 Sudoeste 18 Sur 0 -- -- 45
2019-04-04 18:00:00 14 7 Sur 17 Sudoeste 0 -- -- 45
2019-04-04 17:00:00 17.4 9 Noroeste 28 Norte 0 -- -- 30
2019-04-04 16:00:00 17.1 13 Norte 39 Norte 0 -- -- 31
2019-04-04 15:00:00 16.4 18 Norte 30 Norte 0 -- -- 31
2019-04-04 14:00:00 16 15 Norte 30 Norte 0 -- -- 34
2019-04-04 13:00:00 16.8 13 Norte 27 Norte 0 -- -- 38
2019-04-04 12:00:00 15 17 Norte 33 Norte 0 -- -- 52
2019-04-04 11:00:00 13.5 14 Norte 24 Noroeste 0 -- -- 61
2019-04-04 10:00:00 12 4 Nordeste 6 Norte 0 -- -- 76
2019-04-04 09:00:00 11.1 3 Norte 8 Norte 0 -- -- 81
2019-04-04 08:00:00 10.5 4 Norte 8 Norte 0 -- -- 79
2019-04-04 07:00:00 10.7 6 Norte 18 Nordeste 0 -- -- 76
2019-04-04 06:00:00 10.8 5 Norte 15 Nordeste 0 -- -- 76
2019-04-04 05:00:00 10.6 8 Norte 19 Norte 0 -- -- 83
2019-04-04 04:00:00 10.5 10 Nordeste 25 Nordeste 0 -- -- 84
2019-04-04 03:00:00 10.6 15 Norte 31 Nordeste 0.6 -- -- 87
2019-04-04 02:00:00 10.8 18 Nordeste 39 Nordeste 0 -- -- 86
2019-04-04 01:00:00 12.1 22 Norte 36 Norte 0 -- -- 87
2019-04-04 00:00:00 13.3 9 Norte 26 Norte 0 -- -- 80
2019-04-03 23:00:00 13.8 3 Sur 13 Noroeste 0 -- -- 87
2019-04-03 22:00:00 14.5 7 Noroeste 21 Oeste 0 -- -- 85
2019-04-03 21:00:00 14.5 9 Oeste 22 Sudoeste 0 -- -- 83
2019-04-03 20:00:00 15.7 14 Sudoeste 22 Oeste 0 -- -- 81
2019-04-03 19:00:00 17.8 11 Oeste 26 Noroeste 0 -- -- 68
2019-04-03 18:00:00 18.1 17 Sudoeste 34 Sudoeste 0 -- -- 75
2019-04-03 17:00:00 18 18 Sudoeste 34 Sudoeste 0 -- -- 75
2019-04-03 16:00:00 17.8 23 Sudoeste 40 Sudoeste 0 -- -- 74
2019-04-03 15:00:00 18.3 24 Sudoeste 41 Sudoeste 0 -- -- 72
2019-04-03 14:00:00 17.5 25 Sudoeste 42 Sudoeste 0 -- -- 74
2019-04-03 13:00:00 17.9 21 Sudoeste 37 Sudoeste 0 -- -- 72
2019-04-03 12:00:00 18 17 Sudoeste 35 Sudoeste 0 -- -- 73
2019-04-03 11:00:00 16.9 12 Sudoeste 29 Sudoeste 0 -- -- 75
2019-04-03 10:00:00 15.5 13 Sudoeste 24 Sudoeste 0 -- -- 78
2019-04-03 09:00:00 14.3 8 Sudoeste 19 Sudoeste 0 -- -- 87
2019-04-03 08:00:00 13.2 4 Oeste 18 Sudoeste 0 -- -- 90
2019-04-03 07:00:00 12.4 6 Oeste 13 Oeste 0 -- -- 95
2019-04-03 06:00:00 11.6 4 Norte 12 Sudoeste 0 -- -- 94
2019-04-03 05:00:00 11.1 4 Noroeste 6 Noroeste 0 -- -- 92
2019-04-03 04:00:00 13.3 6 Sudoeste 10 Oeste 0 -- -- 91
2019-04-03 03:00:00 12.9 3 Noroeste 11 Oeste 0 -- -- 91
2019-04-03 02:00:00 12.3 2 Oeste 3 Oeste 0 -- -- 92
2019-04-03 01:00:00 12.7 2 Noroeste 5 Norte 0 -- -- 92
2019-04-03 00:00:00 12.2 3 Norte 9 Oeste 0 -- -- 91
2019-04-02 23:00:00 11.9 7 Oeste 10 Noroeste 0 -- -- 92
2019-04-02 22:00:00 11.7 3 Nordeste 7 Noroeste 0 -- -- 86
2019-04-02 21:00:00 13.2 2 Este 8 Norte 0 -- -- 82
2019-04-02 20:00:00 15 5 Norte 18 Nordeste 0 -- -- 77
2019-04-02 19:00:00 16.7 12 Nordeste 18 Nordeste 0 -- -- 72
2019-04-02 18:00:00 17.4 12 Nordeste 24 Nordeste 0 -- -- 69
2019-04-02 17:00:00 18.4 8 Nordeste 27 Norte 0 -- -- 65
2019-04-02 16:00:00 21 11 Norte 27 Sudoeste 0 -- -- 54
2019-04-02 15:00:00 20.3 16 Oeste 28 Sur 0 -- -- 55
2019-04-02 14:00:00 19.4 11 Oeste 22 Oeste 0 -- -- 53
2019-04-02 13:00:00 19.3 10 Oeste 26 Sur 0 -- -- 55
2019-04-02 12:00:00 16.7 14 Sudoeste 20 Sudoeste 0 -- -- 69
2019-04-02 11:00:00 16.5 9 Sur 16 Sur 0 -- -- 74
2019-04-02 10:00:00 17.7 5 Noroeste 17 Noroeste 0 -- -- 68
2019-04-02 09:00:00 13.2 2 Nordeste 8 Norte 0 -- -- 83
2019-04-02 08:00:00 7.8 6 Noroeste 11 Noroeste 0 -- -- 92
2019-04-02 07:00:00 7.7 8 Noroeste 12 Noroeste 0 -- -- 91
2019-04-02 06:00:00 8.3 6 Noroeste 12 Noroeste 0 -- -- 90
2019-04-02 05:00:00 8.7 6 Norte 9 Noroeste 0 -- -- 91
2019-04-02 04:00:00 8.4 4 Norte 6 Norte 0 -- -- 90
2019-04-02 03:00:00 9.5 5 Norte 8 Norte 0 -- -- 90
2019-04-02 02:00:00 9.9 4 Noroeste 8 Noroeste 0 -- -- 91
2019-04-02 01:00:00 10.2 6 Noroeste 8 Noroeste 0 -- -- 92
2019-04-02 00:00:00 11.5 3 Norte 6 Noroeste 0 -- -- 90
2019-04-01 23:00:00 12.3 0 Calma -- -- 0 -- -- 89
2019-04-01 22:00:00 12.9 0 Calma -- -- 0 -- -- 87
2019-04-01 21:00:00 13.5 0 Calma 5 Sur 0 -- -- 85
2019-04-01 20:00:00 14.3 3 Sudoeste 8 Sudeste 0 -- -- 83
2019-04-01 19:00:00 15.1 7 Sudeste 16 Sur 0 -- -- 79
2019-04-01 18:00:00 15.7 9 Sur 20 Sudeste 0 -- -- 75
2019-04-01 17:00:00 16.5 15 Sudeste 23 Sudeste 0 -- -- 70
2019-04-01 16:00:00 17 17 Sudeste 24 Sudeste 0 -- -- 67
2019-04-01 15:00:00 17.3 15 Sudeste 22 Sudeste 0 -- -- 60
2019-04-01 14:00:00 18 10 Sudeste 19 Este 0 -- -- 58
2019-04-01 13:00:00 16.2 11 Este 20 Este 0 -- -- 63
2019-04-01 12:00:00 16.2 9 Este 17 Este 0 -- -- 63
2019-04-01 11:00:00 15.1 10 Este 17 Este 0 -- -- 67
2019-04-01 10:00:00 14.4 9 Este 17 Este 0 -- -- 71
2019-04-01 09:00:00 14.1 5 Nordeste 12 Este 0 -- -- 76
2019-04-01 08:00:00 13.4 4 Este 12 Este 0 -- -- 79
2019-04-01 07:00:00 13.7 6 Sudeste 15 Sudeste 0 -- -- 77
2019-04-01 06:00:00 13.7 8 Este 18 Este 0 -- -- 80
2019-04-01 05:00:00 13.8 8 Este 21 Sudeste 0 -- -- 80
2019-04-01 04:00:00 13.8 10 Este 22 Este 0 -- -- 80
2019-04-01 03:00:00 13.8 8 Este 19 Este 0 -- -- 82
2019-04-01 02:00:00 13.8 9 Este 22 Sudeste 0 -- -- 83
2019-04-01 01:00:00 13.9 11 Este 22 Sudeste 0 -- -- 86
2019-04-01 00:00:00 13.9 13 Este 24 Sudeste 0 -- -- 87
2019-03-31 23:00:00 14 11 Sudeste 21 Este 0 -- -- 88
2019-03-31 22:00:00 13.9 9 Nordeste 20 Sudeste 0 -- -- 88
2019-03-31 21:00:00 13.9 11 Este 20 Este 0 -- -- 89
2019-03-31 20:00:00 14.3 8 Este 17 Este 0 -- -- 87
2019-03-31 19:00:00 14.7 8 Sudeste 20 Sudeste 0 -- -- 86
2019-03-31 18:00:00 14.9 10 Sudeste 21 Sudeste 0 -- -- 86
2019-03-31 17:00:00 15.1 12 Sudeste 22 Sudeste 0 -- -- 85
2019-03-31 16:00:00 15.2 13 Sudeste 24 Sudeste 0 -- -- 85
2019-03-31 15:00:00 15.6 11 Sudeste 27 Sudeste 0 -- -- 80
2019-03-31 14:00:00 16.2 16 Sudeste 28 Sudeste 0 -- -- 78
2019-03-31 13:00:00 17.2 15 Sudeste 28 Este 0 -- -- 72
2019-03-31 12:00:00 16.1 13 Sudeste 30 Sudeste 0 -- -- 75
2019-03-31 11:00:00 15.9 14 Sudeste 27 Sudeste 0 -- -- 76
2019-03-31 10:00:00 15.9 14 Sudeste 23 Este 0 -- -- 77
2019-03-31 09:00:00 15.1 11 Sudeste 24 Sudeste 0 -- -- 84
2019-03-31 08:00:00 13.2 5 Este 13 Este 0 -- -- 91
2019-03-31 07:00:00 13.3 5 Este 16 Este 0 -- -- 92
2019-03-31 06:00:00 13.6 8 Este 15 Este 0 -- -- 92
2019-03-31 05:00:00 13.1 0 Calma 9 Este 0 -- -- 91
2019-03-31 03:00:00 12.4 0 Calma 4 Este 0 -- -- 91
2019-03-31 01:00:00 11.9 0 Calma 7 Este 0 -- -- 89
2019-03-31 00:00:00 13.5 5 Sudeste 15 Este 0 -- -- 86
2019-03-30 23:00:00 14 4 Este 15 Sudeste 0 -- -- 84
2019-03-30 22:00:00 14.1 5 Este 18 Este 0 -- -- 80
2019-03-30 21:00:00 14.2 9 Sudeste 19 Sudeste 0 -- -- 80
2019-03-30 20:00:00 14.3 10 Sudeste 21 Sudeste 0 -- -- 83
2019-03-30 19:00:00 14.4 13 Sudeste 23 Sudeste 0 -- -- 83
2019-03-30 18:00:00 14.9 11 Este 24 Este 0 -- -- 80
2019-03-30 17:00:00 15.5 10 Sudeste 22 Sudeste 0 -- -- 76
2019-03-30 16:00:00 15.8 12 Este 21 Este 0 -- -- 72
2019-03-30 15:00:00 16 13 Sudeste 26 Sudeste 0 -- -- 71
2019-03-30 14:00:00 16.2 12 Sudeste 24 Sudeste 0 -- -- 70
2019-03-30 13:00:00 16.6 14 Sudeste 22 Sudeste 0 -- -- 66
2019-03-30 12:00:00 16.9 12 Sudeste 21 Sudeste 0 -- -- 64
2019-03-30 11:00:00 16.5 11 Sudeste 20 Sudeste 0 -- -- 62
2019-03-30 10:00:00 15.9 12 Sudeste 22 Sudeste 0 -- -- 60
2019-03-30 09:00:00 15.3 12 Sudeste 20 Sudeste 0 -- -- 66
2019-03-30 08:00:00 11.7 5 Noroeste 10 Noroeste 0 -- -- 79
2019-03-30 07:00:00 8.4 8 Noroeste 12 Noroeste 0 -- -- 87
2019-03-30 06:00:00 8.3 8 Noroeste 10 Noroeste 0 -- -- 86
2019-03-30 05:00:00 9.7 6 Noroeste 9 Noroeste 0 -- -- 83
2019-03-30 04:00:00 10.4 7 Noroeste 12 Noroeste 0 -- -- 82
2019-03-30 03:00:00 10.1 6 Noroeste 12 Noroeste 0 -- -- 84
2019-03-30 02:00:00 9.1 9 Noroeste 13 Noroeste 0 -- -- 86
2019-03-30 01:00:00 8.4 8 Noroeste 12 Noroeste 0 -- -- 88
2019-03-30 00:00:00 8.1 5 Noroeste 10 Noroeste 0 -- -- 88
2019-03-29 23:00:00 8.5 4 Noroeste 9 Noroeste 0 -- -- 86
2019-03-29 22:00:00 9.3 4 Noroeste 8 Noroeste 0 -- -- 83
2019-03-29 21:00:00 9.7 7 Noroeste 10 Noroeste 0 -- -- 80
2019-03-29 20:00:00 11.5 3 Norte 13 Nordeste 0 -- -- 74
2019-03-29 19:00:00 13.2 7 Nordeste 18 Nordeste 0 -- -- 71
2019-03-29 18:00:00 14.9 10 Nordeste 21 Nordeste 0 -- -- 63
2019-03-29 17:00:00 15.6 11 Nordeste 22 Norte 0 -- -- 59
2019-03-29 16:00:00 15.7 12 Sudeste 23 Sudeste 0 -- -- 60
2019-03-29 15:00:00 16.6 11 Sur 21 Sur 0 -- -- 56
2019-03-29 14:00:00 15.9 13 Sudeste 22 Sudeste 0 -- -- 60
2019-03-29 13:00:00 16 14 Sudeste 22 Sudeste 0 -- -- 56
2019-03-29 12:00:00 15.7 13 Sudeste 24 Sudeste 0 -- -- 58
2019-03-29 11:00:00 15.7 15 Sudeste 28 Sudeste 0 -- -- 61
2019-03-29 10:00:00 15.2 14 Este 28 Este 0 -- -- 63
2019-03-29 09:00:00 14.9 8 Nordeste 16 Nordeste 0 -- -- 64
2019-03-29 08:00:00 11.4 3 Noroeste 10 Noroeste 0 -- -- 89
2019-03-29 07:00:00 7.6 5 Noroeste 12 Noroeste 0 -- -- 92
2019-03-29 06:00:00 7.2 8 Noroeste 14 Noroeste 0 -- -- 91
2019-03-29 05:00:00 6.9 7 Noroeste 12 Noroeste 0 -- -- 90
2019-03-29 04:00:00 6.4 8 Noroeste 14 Noroeste 0 -- -- 87
2019-03-29 03:00:00 6.6 9 Noroeste 13 Noroeste 0 -- -- 85
2019-03-29 02:00:00 6.5 8 Noroeste 13 Oeste 0 -- -- 85
2019-03-29 01:00:00 7.1 6 Noroeste 14 Noroeste 0 -- -- 82
2019-03-29 00:00:00 7.2 9 Noroeste 12 Noroeste 0 -- -- 84
2019-03-28 23:00:00 7.5 8 Noroeste 13 Noroeste 0 -- -- 82
2019-03-28 22:00:00 8.4 8 Noroeste 13 Noroeste 0 -- -- 80
2019-03-28 21:00:00 9.5 8 Noroeste 12 Noroeste 0 -- -- 76
2019-03-28 20:00:00 10.4 6 Noroeste 11 Noroeste 0 -- -- 72
2019-03-28 19:00:00 13.1 6 Nordeste 23 Nordeste 0 -- -- 64
2019-03-28 18:00:00 14.8 14 Nordeste 27 Este 0 -- -- 53
2019-03-28 17:00:00 15.9 14 Nordeste 26 Nordeste 0 -- -- 46
2019-03-28 16:00:00 16.2 13 Este 26 Este 0 -- -- 52
2019-03-28 15:00:00 16.6 15 Este 30 Este 0 -- -- 53
2019-03-28 14:00:00 17.3 17 Nordeste 33 Este 0 -- -- 49
2019-03-28 13:00:00 17.3 15 Este 36 Este 0 -- -- 49
2019-03-28 12:00:00 16.6 18 Este 35 Nordeste 0 -- -- 50
2019-03-28 11:00:00 16 21 Nordeste 34 Nordeste 0 -- -- 55
2019-03-28 10:00:00 15.9 18 Nordeste 31 Nordeste 0 -- -- 50
2019-03-28 09:00:00 14.6 16 Nordeste 30 Nordeste 0 -- -- 64
2019-03-28 08:00:00 13.1 11 Norte 21 Nordeste 0 -- -- 65
2019-03-28 07:00:00 10.3 10 Norte 20 Norte 0 -- -- 72
2019-03-28 06:00:00 10.3 14 Norte 22 Nordeste 0 -- -- 73
2019-03-28 05:00:00 10.6 11 Nordeste 24 Nordeste 0 -- -- 71
2019-03-28 04:00:00 11.1 13 Nordeste 27 Nordeste 0 -- -- 70
2019-03-28 03:00:00 11.3 15 Nordeste 30 Nordeste 0 -- -- 68
2019-03-28 02:00:00 11.4 14 Nordeste 27 Nordeste 0 -- -- 64
2019-03-28 01:00:00 11.4 13 Nordeste 28 Nordeste 0 -- -- 69
2019-03-28 00:00:00 8.8 10 Norte 13 Nordeste 0 -- -- 77
2019-03-27 23:00:00 7.4 8 Noroeste 12 Noroeste 0 -- -- 78
2019-03-27 22:00:00 7.7 6 Norte 11 Norte 0 -- -- 74
2019-03-27 21:00:00 8.8 9 Norte 12 Norte 0 -- -- 75
2019-03-27 20:00:00 10.2 6 Norte 19 Nordeste 0 -- -- 72
2019-03-27 19:00:00 11.9 10 Norte 28 Norte 0 -- -- 68
2019-03-27 18:00:00 13.5 15 Nordeste 28 Norte 0 -- -- 63
2019-03-27 17:00:00 14.7 16 Nordeste 30 Nordeste 0 -- -- 56
2019-03-27 16:00:00 15.5 18 Nordeste 34 Norte 0 -- -- 52
2019-03-27 15:00:00 16 18 Nordeste 37 Nordeste 0 -- -- 50
2019-03-27 14:00:00 15.6 23 Nordeste 42 Norte 0 -- -- 52
2019-03-27 13:00:00 16.2 23 Nordeste 41 Nordeste 0 -- -- 52
2019-03-27 12:00:00 15.8 23 Nordeste 39 Nordeste 0 -- -- 56
2019-03-27 11:00:00 15.4 22 Nordeste 40 Nordeste 0 -- -- 60
2019-03-27 10:00:00 15.2 21 Nordeste 40 Nordeste 0 -- -- 63
2019-03-27 09:00:00 14.4 19 Nordeste 39 Nordeste 0 -- -- 64
2019-03-27 08:00:00 13.4 14 Nordeste 29 Nordeste 0 -- -- 68
2019-03-27 07:00:00 11.8 14 Nordeste 23 Nordeste 0 -- -- 74
2019-03-27 06:00:00 11.6 13 Nordeste 32 Nordeste 0 -- -- 68
2019-03-27 05:00:00 12.2 18 Nordeste 33 Nordeste 0 -- -- 61
2019-03-27 04:00:00 11.4 9 Nordeste 21 Nordeste 0 -- -- 66
2019-03-27 03:00:00 10.9 8 Nordeste 17 Nordeste 0 -- -- 68
2019-03-27 02:00:00 10.2 5 Nordeste 14 Nordeste 0 -- -- 69
2019-03-27 01:00:00 7.1 8 Norte 14 Nordeste 0 -- -- 77
2019-03-27 00:00:00 6.6 7 Noroeste 11 Noroeste 0 -- -- 75